Lexington (LEX/KLEX)

Map

Destinations

Information

Location
Lexington, KY
Local Time
18:21 / 6:21 pm
GMT Time
23:21 / 11:21 pm
Gates
B2
No FAA reported delays
METAR KLEX 182254Z 21009KT 10SM CLR M03/M12 A3029 RMK AO2 SLP273 T10331117
TAF KLEX 181720Z 1818/1918 22011G18KT P6SM SKC FM182300 21010KT P6SM SKC